Time;durP1;ratioP1;P1;durP2;ratioP2;P2;SDS_P1;SDS_P2;PMS_P1;PMS_P2;Temp;Humidity;BMP_temperature;BMP_pressure;BME280_temperature;BME280_humidity;BME280_pressure;Samples;Min_cycle;Max_cycle;Signal;HPM_P1;HPM_P2
2022/09/03 00:00:03;;;;;;;2.30;2.20;;;;;;;13.24;100.00;96061.66;5030311;28;105125;-64
2022/09/03 00:02:42;;;;;;;3.57;2.20;;;;;;;13.06;100.00;96063.06;5031398;27;102381;-63
2022/09/03 00:05:17;;;;;;;2.10;2.00;;;;;;;13.00;100.00;96060.66;5030979;27;102652;-64
2022/09/03 00:07:56;;;;;;;2.03;1.90;;;;;;;12.94;100.00;96062.53;5029457;28;103857;-63
2022/09/03 00:10:30;;;;;;;2.00;1.90;;;;;;;12.98;100.00;96055.59;5030115;28;101914;-64
2022/09/03 00:13:01;;;;;;;2.43;2.20;;;;;;;13.07;100.00;96055.84;5031599;28;102491;-64
2022/09/03 00:15:32;;;;;;;2.20;2.07;;;;;;;12.85;100.00;96063.34;5030873;27;101983;-63
2022/09/03 00:18:02;;;;;;;1.90;1.73;;;;;;;12.76;100.00;96068.47;5030074;28;102122;-63
2022/09/03 00:20:35;;;;;;;2.13;2.03;;;;;;;12.72;100.00;96071.94;5031102;28;101691;-63
2022/09/03 00:23:07;;;;;;;2.67;1.90;;;;;;;12.73;100.00;96070.88;5029091;28;104627;-63
2022/09/03 00:25:43;;;;;;;1.80;1.70;;;;;;;12.70;100.00;96068.75;5033266;28;102229;-63
2022/09/03 00:28:17;;;;;;;2.17;2.07;;;;;;;12.78;100.00;96078.88;5030843;28;102615;-63
2022/09/03 00:30:47;;;;;;;2.50;2.10;;;;;;;12.69;100.00;96070.63;5029883;28;102190;-63
2022/09/03 00:33:21;;;;;;;2.00;1.90;;;;;;;12.80;100.00;96074.06;5029620;28;103983;-63
2022/09/03 00:35:53;;;;;;;2.20;2.00;;;;;;;12.76;100.00;96067.69;5028961;28;105656;-64
2022/09/03 00:38:22;;;;;;;2.07;1.97;;;;;;;12.87;100.00;96066.56;5030996;28;102340;-63
2022/09/03 00:41:02;;;;;;;2.30;2.20;;;;;;;12.85;100.00;96072.19;5030994;27;102306;-64
2022/09/03 00:43:45;;;;;;;2.10;2.00;;;;;;;12.84;100.00;96077.78;5030453;28;102642;-64
2022/09/03 00:46:18;;;;;;;2.37;2.27;;;;;;;12.77;100.00;96085.28;5031075;27;101766;-63
2022/09/03 00:49:03;;;;;;;2.10;1.90;;;;;;;12.82;100.00;96074.59;5033689;27;102524;-63
2022/09/03 00:51:38;;;;;;;2.23;2.13;;;;;;;12.81;100.00;96084.47;5030623;28;101764;-63
2022/09/03 00:54:14;;;;;;;2.10;2.00;;;;;;;12.89;100.00;96083.91;5031123;28;102293;-63
2022/09/03 00:56:49;;;;;;;2.33;2.13;;;;;;;12.94;100.00;96083.09;5028800;28;104436;-64
2022/09/03 00:59:32;;;;;;;1.83;1.73;;;;;;;12.93;100.00;96079.59;5030857;27;101694;-63
2022/09/03 01:02:12;;;;;;;2.47;2.00;;;;;;;12.96;100.00;96075.63;5029037;28;105042;-63
2022/09/03 01:04:56;;;;;;;2.00;1.90;;;;;;;13.07;100.00;96085.19;5029811;27;102840;-64
2022/09/03 01:07:35;;;;;;;2.20;2.10;;;;;;;13.06;100.00;96083.59;5030748;28;101809;-63
2022/09/03 01:10:16;;;;;;;2.20;2.10;;;;;;;13.04;100.00;96086.53;5030856;28;102562;-64
2022/09/03 01:12:55;;;;;;;2.10;2.00;;;;;;;13.10;100.00;96085.47;5031863;28;103790;-63
2022/09/03 01:15:31;;;;;;;2.47;2.27;;;;;;;13.13;100.00;96092.16;5029249;28;105058;-64
2022/09/03 01:18:14;;;;;;;2.53;2.33;;;;;;;13.19;100.00;96091.03;5029971;28;101718;-64
2022/09/03 01:20:55;;;;;;;3.07;2.50;;;;;;;13.26;100.00;96086.19;5030624;28;101763;-63
2022/09/03 01:23:47;;;;;;;1.90;1.80;;;;;;;13.31;100.00;96081.63;5030510;28;102339;-63
2022/09/03 01:26:40;;;;;;;2.20;2.10;;;;;;;13.32;100.00;96082.44;5029795;27;102752;-64
2022/09/03 01:29:20;;;;;;;1.93;1.83;;;;;;;13.15;100.00;96090.78;5028836;28;101882;-64
2022/09/03 01:31:57;;;;;;;2.90;2.40;;;;;;;13.19;100.00;96083.81;5030505;27;102239;-64
2022/09/03 01:34:39;;;;;;;2.47;2.17;;;;;;;13.29;100.00;96075.75;5033104;27;102169;-63
2022/09/03 01:37:15;;;;;;;2.10;2.00;;;;;;;13.32;100.00;96071.75;5028871;28;105498;-64
2022/09/03 01:39:52;;;;;;;2.00;1.90;;;;;;;13.26;100.00;96071.00;5028098;28;105750;-64
2022/09/03 01:42:24;;;;;;;2.30;2.10;;;;;;;13.20;100.00;96081.97;5028516;28;101963;-64
2022/09/03 01:45:20;;;;;;;3.73;2.57;;;;;;;13.20;100.00;96087.28;5030623;27;102229;-64
2022/09/03 01:48:03;;;;;;;2.20;2.10;;;;;;;13.26;100.00;96089.69;4993239;28;104202;-63
2022/09/03 01:50:42;;;;;;;2.60;2.10;;;;;;;13.34;100.00;96080.28;5028702;28;102396;-63
2022/09/03 01:53:19;;;;;;;2.50;2.30;;;;;;;13.41;100.00;96086.91;5031029;28;103589;-63
2022/09/03 01:56:07;;;;;;;3.13;2.33;;;;;;;13.36;100.00;96089.59;5031747;28;105777;-64
2022/09/03 01:58:41;;;;;;;2.20;2.00;;;;;;;13.35;100.00;96090.69;5035697;28;101774;-63
2022/09/03 02:01:17;;;;;;;2.30;2.20;;;;;;;13.39;100.00;96090.94;5033173;27;102551;-63
2022/09/03 02:03:45;;;;;;;2.53;2.40;;;;;;;13.41;100.00;96088.81;5031988;28;101923;-64
2022/09/03 02:06:14;;;;;;;3.03;2.83;;;;;;;13.39;100.00;96077.59;5031678;28;105188;-63
2022/09/03 02:08:42;;;;;;;2.33;2.23;;;;;;;13.44;100.00;96081.03;5014785;28;105569;-63
2022/09/03 02:11:09;;;;;;;2.33;2.23;;;;;;;13.51;100.00;96070.84;5033491;27;101855;-63
2022/09/03 02:13:40;;;;;;;2.50;2.30;;;;;;;13.57;100.00;96068.94;5033066;28;102599;-64
2022/09/03 02:16:14;;;;;;;2.53;2.33;;;;;;;13.58;100.00;96068.66;5032858;28;102834;-63
2022/09/03 02:18:46;;;;;;;2.10;2.00;;;;;;;13.54;100.00;96069.50;5033390;28;101962;-63
2022/09/03 02:21:18;;;;;;;2.10;2.00;;;;;;;13.54;100.00;96075.66;5034681;28;105728;-64
2022/09/03 02:23:47;;;;;;;2.23;2.13;;;;;;;13.42;100.00;96069.03;5033248;27;101814;-64
2022/09/03 02:26:18;;;;;;;2.70;2.50;;;;;;;13.44;100.00;96075.69;5031547;28;105076;-64
2022/09/03 02:28:46;;;;;;;2.30;2.10;;;;;;;13.50;100.00;96073.78;5032618;28;103153;-63
2022/09/03 02:31:15;;;;;;;2.20;2.03;;;;;;;13.55;100.00;96073.75;5032903;27;101880;-64
2022/09/03 02:33:45;;;;;;;2.60;2.43;;;;;;;13.57;100.00;96063.59;5031251;28;105078;-64
2022/09/03 02:36:15;;;;;;;3.47;2.13;;;;;;;13.60;100.00;96073.72;5032588;28;102602;-64
2022/09/03 02:38:44;;;;;;;2.20;2.10;;;;;;;13.59;100.00;96075.63;5031352;28;102128;-64
2022/09/03 02:41:13;;;;;;;2.60;2.37;;;;;;;13.58;100.00;96076.66;5032739;28;104245;-63
2022/09/03 02:43:46;;;;;;;2.47;2.33;;;;;;;13.56;100.00;96078.00;5035380;28;103293;-63
2022/09/03 02:46:21;;;;;;;2.57;2.30;;;;;;;13.63;100.00;96062.50;5031322;28;105804;-64
2022/09/03 02:48:48;;;;;;;2.00;1.90;;;;;;;13.65;100.00;96058.47;5032490;28;103154;-63
2022/09/03 02:51:15;;;;;;;2.70;2.50;;;;;;;13.69;100.00;96058.72;5032817;27;101715;-63
2022/09/03 02:53:42;;;;;;;2.73;2.30;;;;;;;13.64;100.00;96053.41;5031348;28;104805;-63
2022/09/03 02:56:10;;;;;;;2.10;2.00;;;;;;;13.64;100.00;96051.53;5032097;28;102875;-63
2022/09/03 02:58:38;;;;;;;2.70;2.50;;;;;;;13.61;100.00;96052.09;5031181;28;101934;-63
2022/09/03 03:01:06;;;;;;;2.13;2.00;;;;;;;13.59;100.00;96048.09;5032397;28;102887;-64
2022/09/03 03:03:35;;;;;;;2.30;1.93;;;;;;;13.57;100.00;96068.94;5030793;28;102637;-64
2022/09/03 03:06:06;;;;;;;2.47;2.10;;;;;;;13.57;100.00;96067.06;5035663;28;101864;-64
2022/09/03 03:08:33;;;;;;;2.73;2.43;;;;;;;13.55;100.00;96055.88;5030283;28;105955;-64
2022/09/03 03:11:01;;;;;;;2.30;2.10;;;;;;;13.60;100.00;96057.69;5032327;27;101963;-64
2022/09/03 03:13:28;;;;;;;2.60;2.40;;;;;;;13.63;100.00;96059.81;5030838;28;105031;-63
2022/09/03 03:15:57;;;;;;;2.70;2.30;;;;;;;13.66;100.00;96057.41;5031644;28;102809;-64
2022/09/03 03:18:24;;;;;;;2.40;2.20;;;;;;;13.68;100.00;96065.91;5032577;28;102153;-64
2022/09/03 03:20:53;;;;;;;2.07;1.97;;;;;;;13.67;100.00;96063.53;5032143;28;102326;-64
2022/09/03 03:23:20;;;;;;;2.90;2.30;;;;;;;13.65;100.00;96069.16;5031891;27;103054;-63
2022/09/03 03:25:47;;;;;;;2.60;2.40;;;;;;;13.65;100.00;96065.69;5032303;27;101790;-64
2022/09/03 03:28:15;;;;;;;2.20;2.10;;;;;;;13.62;100.00;96066.25;5035045;28;102956;-64
2022/09/03 03:30:41;;;;;;;3.03;2.50;;;;;;;13.52;100.00;96068.97;5032012;28;102584;-63
2022/09/03 03:33:09;;;;;;;2.57;2.33;;;;;;;13.52;100.00;96068.97;5032151;28;102320;-64
2022/09/03 03:35:36;;;;;;;2.80;2.53;;;;;;;13.55;100.00;96074.56;5031443;28;102621;-64
2022/09/03 03:38:05;;;;;;;2.30;2.20;;;;;;;13.51;100.00;96070.06;5030512;28;102032;-64
2022/09/03 03:40:32;;;;;;;2.57;2.37;;;;;;;13.50;100.00;96068.44;5032001;28;102327;-64
2022/09/03 03:42:59;;;;;;;2.63;2.30;;;;;;;13.51;100.00;96070.06;5031292;28;102550;-64
2022/09/03 03:45:26;;;;;;;2.73;2.53;;;;;;;13.54;100.00;96072.97;5031610;28;101876;-63
2022/09/03 03:47:57;;;;;;;3.23;2.70;;;;;;;13.56;100.00;96070.81;5034580;27;102272;-64
2022/09/03 03:50:25;;;;;;;3.20;2.90;;;;;;;13.41;100.00;96073.56;5030603;28;101889;-64
2022/09/03 03:52:52;;;;;;;3.13;2.50;;;;;;;13.21;100.00;96083.56;5030072;28;105181;-63
2022/09/03 03:55:21;;;;;;;3.77;2.80;;;;;;;13.17;100.00;96079.81;5030997;28;104159;-64
2022/09/03 03:57:48;;;;;;;3.40;2.90;;;;;;;13.14;100.00;96088.41;5029981;28;101845;-64
2022/09/03 04:00:16;;;;;;;3.80;2.77;;;;;;;13.18;100.00;96095.56;5031641;28;102340;-64
2022/09/03 04:02:43;;;;;;;2.93;2.40;;;;;;;13.18;100.00;96092.09;5029565;28;105343;-64
2022/09/03 04:05:10;;;;;;;2.80;2.70;;;;;;;13.11;100.00;96087.06;5031000;28;102004;-64
2022/09/03 04:07:37;;;;;;;2.80;2.60;;;;;;;13.15;100.00;96090.78;5031852;28;102323;-64
2022/09/03 04:10:05;;;;;;;3.67;2.57;;;;;;;13.17;100.00;96085.16;5032973;28;102850;-64
2022/09/03 04:12:34;;;;;;;3.10;2.80;;;;;;;13.25;100.00;96081.94;5029816;28;104874;-64
2022/09/03 04:15:01;;;;;;;2.90;2.70;;;;;;;13.26;100.00;96094.22;5030438;28;102633;-64
2022/09/03 04:17:28;;;;;;;4.10;2.33;;;;;;;13.23;100.00;96092.06;5029960;28;101978;-64
2022/09/03 04:19:55;;;;;;;2.80;2.60;;;;;;;13.20;100.00;96092.63;5031686;28;101673;-64
2022/09/03 04:22:22;;;;;;;3.17;2.60;;;;;;;13.16;100.00;96099.59;5030513;28;102242;-63
2022/09/03 04:24:49;;;;;;;2.70;2.50;;;;;;;13.11;100.00;96099.59;5031113;27;101834;-64
2022/09/03 04:27:16;;;;;;;3.00;2.70;;;;;;;13.05;100.00;96098.03;5031159;28;102354;-63
2022/09/03 04:29:45;;;;;;;4.23;2.90;;;;;;;13.05;100.00;96106.03;5029355;28;105577;-64
2022/09/03 04:34:56;;;;;;;3.20;3.00;;;;;;;13.11;100.00;96104.94;5030633;27;102796;-64
2022/09/03 04:37:24;;;;;;;3.67;3.37;;;;;;;13.11;100.00;96099.59;5030996;28;101897;-63
2022/09/03 04:39:53;;;;;;;4.07;3.10;;;;;;;13.06;100.00;96104.97;5029979;28;102349;-64
2022/09/03 04:42:20;;;;;;;3.83;2.90;;;;;;;13.02;100.00;96106.59;5030023;28;102604;-63
2022/09/03 04:44:49;;;;;;;3.27;2.97;;;;;;;13.10;100.00;96095.34;5029421;28;101819;-64
2022/09/03 04:47:16;;;;;;;3.80;2.80;;;;;;;13.13;100.00;96092.16;5029398;28;105510;-63
2022/09/03 04:49:43;;;;;;;2.90;2.70;;;;;;;13.07;100.00;96095.88;5030420;28;102966;-64
2022/09/03 04:52:10;;;;;;;3.03;2.70;;;;;;;12.94;100.00;96107.09;5030700;28;101943;-64
2022/09/03 04:54:37;;;;;;;3.10;2.90;;;;;;;12.88;100.00;96111.69;5032061;28;105734;-64
2022/09/03 04:57:05;;;;;;;2.90;2.70;;;;;;;12.97;100.00;96109.28;5029482;28;101946;-63
2022/09/03 04:59:32;;;;;;;2.97;2.70;;;;;;;12.98;100.00;96113.53;5029473;28;105230;-64
2022/09/03 05:02:00;;;;;;;2.90;2.70;;;;;;;13.01;100.00;96113.78;5030116;28;103158;-64
2022/09/03 05:04:27;;;;;;;2.83;2.63;;;;;;;13.06;100.00;96105.78;5029165;28;101926;-63
2022/09/03 05:06:54;;;;;;;2.67;2.47;;;;;;;13.03;100.00;96100.19;5030175;28;102542;-64
2022/09/03 05:09:21;;;;;;;3.23;2.93;;;;;;;12.82;100.00;96103.94;5028552;28;106949;-63
2022/09/03 05:11:48;;;;;;;4.60;3.03;;;;;;;12.81;100.00;96107.69;5029043;28;102027;-64
2022/09/03 05:14:15;;;;;;;3.53;3.23;;;;;;;12.84;100.00;96105.28;5028875;28;105791;-63
2022/09/03 05:16:42;;;;;;;3.43;3.13;;;;;;;13.03;100.00;96110.84;5031697;28;105423;-63
2022/09/03 05:19:11;;;;;;;4.73;3.43;;;;;;;13.11;100.00;96107.63;5030544;27;103926;-64
2022/09/03 05:21:38;;;;;;;3.40;3.20;;;;;;;13.17;100.00;96111.88;5029454;28;102549;-64
2022/09/03 05:24:06;;;;;;;3.23;3.03;;;;;;;13.17;100.00;96101.19;5030495;28;101849;-63
2022/09/03 05:26:36;;;;;;;3.40;3.20;;;;;;;13.21;100.00;96094.22;5029279;27;103011;-64
2022/09/03 05:29:06;;;;;;;2.93;2.83;;;;;;;13.24;100.00;96088.34;5028144;28;105610;-63
2022/09/03 05:31:34;;;;;;;5.00;3.27;;;;;;;13.18;100.00;96097.44;5030277;28;101831;-64
2022/09/03 05:34:03;;;;;;;3.60;3.30;;;;;;;13.19;100.00;96107.84;5030070;27;102285;-64
2022/09/03 05:36:35;;;;;;;3.77;3.47;;;;;;;13.42;100.00;96103.75;5028180;28;105395;-63
2022/09/03 05:39:03;;;;;;;4.03;3.73;;;;;;;13.49;100.00;96107.72;5031851;28;101855;-63
2022/09/03 05:41:32;;;;;;;4.30;3.90;;;;;;;13.53;100.00;96105.31;5027755;28;105729;-64
2022/09/03 05:43:59;;;;;;;3.60;3.40;;;;;;;13.46;100.00;96110.16;5030465;28;101874;-63
2022/09/03 05:47:15;;;;;;;5.40;3.73;;;;;;;13.61;100.00;96105.53;5030325;28;102519;-63
2022/09/03 05:49:47;;;;;;;3.30;3.10;;;;;;;13.53;100.00;96108.75;5029779;28;103260;-64
2022/09/03 05:52:18;;;;;;;3.30;3.00;;;;;;;13.39;100.00;96109.63;5028739;28;102075;-64
2022/09/03 05:54:46;;;;;;;5.07;3.90;;;;;;;13.36;100.00;96102.19;5028975;28;105372;-64
2022/09/03 05:57:29;;;;;;;4.20;3.80;;;;;;;13.68;100.00;96102.56;5029581;27;102788;-64
2022/09/03 05:59:56;;;;;;;4.20;3.80;;;;;;;13.87;100.00;96103.47;5033637;27;101647;-63
2022/09/03 06:02:23;;;;;;;3.77;3.50;;;;;;;13.95;100.00;96098.34;5029433;28;102567;-64
2022/09/03 06:04:51;;;;;;;4.17;3.70;;;;;;;14.17;100.00;96103.28;5028337;28;101957;-64
2022/09/03 06:07:22;;;;;;;4.70;3.80;;;;;;;14.19;100.00;96117.16;5030214;28;102954;-64
2022/09/03 06:09:49;;;;;;;4.47;3.77;;;;;;;14.06;100.00;96110.56;5029293;28;102780;-64
2022/09/03 06:12:16;;;;;;;4.80;4.40;;;;;;;14.12;100.00;96112.13;5029994;28;101811;-64
2022/09/03 06:14:43;;;;;;;6.27;4.63;;;;;;;14.08;100.00;96113.78;5028542;28;103879;-64
2022/09/03 06:17:12;;;;;;;5.27;3.90;;;;;;;14.09;100.00;96110.03;5029472;28;102652;-64
2022/09/03 06:19:54;;;;;;;4.33;4.00;;;;;;;13.86;100.00;96109.91;5030001;28;101938;-64
2022/09/03 06:22:27;;;;;;;4.23;3.93;;;;;;;13.82;100.00;96131.06;5032959;28;102334;-64
2022/09/03 06:24:54;;;;;;;4.97;3.70;;;;;;;13.75;100.00;96145.78;5028416;28;101703;-64
2022/09/03 06:27:21;;;;;;;4.50;3.97;;;;;;;13.85;100.00;96156.44;5029789;28;102275;-64
2022/09/03 06:29:48;;;;;;;4.60;4.20;;;;;;;13.76;100.00;96145.53;5027742;28;105528;-64
2022/09/03 06:32:15;;;;;;;4.87;4.50;;;;;;;14.03;100.00;96135.19;5029807;28;101825;-64
2022/09/03 06:34:42;;;;;;;5.43;4.20;;;;;;;14.15;100.00;96140.19;5029645;27;102261;-63
2022/09/03 06:37:11;;;;;;;4.33;4.03;;;;;;;14.34;100.00;96143.84;5028960;27;101706;-64
2022/09/03 06:39:41;;;;;;;3.90;3.60;;;;;;;14.10;100.00;96146.38;5031192;28;101854;-64
2022/09/03 06:42:09;;;;;;;4.10;3.70;;;;;;;14.59;100.00;96151.63;5031957;28;105322;-63
2022/09/03 06:44:37;;;;;;;4.33;3.80;;;;;;;14.49;100.00;96157.09;5034513;28;105451;-63
2022/09/03 06:47:16;;;;;;;4.20;3.90;;;;;;;14.49;100.00;96173.16;5033136;28;102337;-63
2022/09/03 06:49:45;;;;;;;4.60;4.20;;;;;;;14.33;100.00;96174.34;5032870;28;103037;-63
2022/09/03 06:52:12;;;;;;;4.23;3.83;;;;;;;14.39;100.00;96191.94;5031511;28;101987;-63
2022/09/03 06:54:41;;;;;;;4.00;3.70;;;;;;;14.51;100.00;96195.06;5032830;28;102314;-63
2022/09/03 06:57:15;;;;;;;4.07;3.57;;;;;;;14.57;100.00;96188.59;5030866;28;105728;-64
2022/09/03 06:59:43;;;;;;;4.67;4.20;;;;;;;14.74;100.00;96181.75;5031701;28;101867;-63
2022/09/03 07:02:10;;;;;;;4.57;3.83;;;;;;;15.10;100.00;96180.34;5032878;27;102552;-63
2022/09/03 07:04:37;;;;;;;3.67;3.37;;;;;;;15.44;100.00;96175.72;5030781;28;105931;-63
2022/09/03 07:07:15;;;;;;;4.30;3.90;;;;;;;15.81;100.00;96169.63;5035844;28;101829;-64
2022/09/03 07:09:43;;;;;;;4.60;4.03;;;;;;;16.07;100.00;96174.34;5030890;28;105363;-64
2022/09/03 07:12:10;;;;;;;4.17;3.77;;;;;;;16.31;100.00;96182.34;5032685;27;102119;-63
2022/09/03 07:14:38;;;;;;;3.80;3.50;;;;;;;16.56;100.00;96187.38;5031182;28;105316;-64
2022/09/03 07:17:11;;;;;;;3.63;3.33;;;;;;;16.77;100.00;96188.63;5032096;28;101945;-64
2022/09/03 07:19:38;;;;;;;3.77;3.47;;;;;;;16.77;100.00;96189.41;5031029;28;101862;-64
2022/09/03 07:22:06;;;;;;;3.80;3.50;;;;;;;16.85;100.00;96185.28;5031825;27;102293;-64
2022/09/03 07:24:34;;;;;;;3.70;3.40;;;;;;;17.34;100.00;96193.53;5029938;28;105373;-64
2022/09/03 07:27:04;;;;;;;3.70;3.40;;;;;;;17.67;100.00;96192.38;5031983;27;102213;-64
2022/09/03 07:29:31;;;;;;;3.20;3.00;;;;;;;17.87;100.00;96189.28;5035307;27;102197;-64
2022/09/03 07:31:58;;;;;;;4.07;3.03;;;;;;;18.00;100.00;96188.47;5030858;28;102088;-64
2022/09/03 07:34:25;;;;;;;2.87;2.67;;;;;;;17.88;100.00;96194.34;5031777;27;102836;-64
2022/09/03 07:36:53;;;;;;;4.47;3.37;;;;;;;17.95;100.00;96196.63;5029983;28;105751;-64
2022/09/03 07:39:21;;;;;;;4.10;2.97;;;;;;;18.20;100.00;96201.50;5031626;28;101957;-63
2022/09/03 07:41:49;;;;;;;4.37;2.97;;;;;;;18.58;100.00;96182.03;5032160;27;102357;-64
2022/09/03 07:44:19;;;;;;;3.63;3.30;;;;;;;18.89;100.00;96187.50;5031388;27;102519;-64
2022/09/03 07:46:48;;;;;;;4.30;2.73;;;;;;;19.17;100.00;96187.03;5030530;28;101988;-64
2022/09/03 07:49:16;;;;;;;2.93;2.23;;;;;;;19.33;100.00;96190.16;5029962;27;105516;-64
2022/09/03 07:51:45;;;;;;;2.77;2.57;;;;;;;19.10;100.00;96181.28;5032721;28;101895;-64
2022/09/03 07:54:12;;;;;;;3.37;2.80;;;;;;;19.34;100.00;96189.06;5031769;27;102346;-64
2022/09/03 07:56:40;;;;;;;2.90;2.70;;;;;;;19.29;100.00;96189.19;5029588;28;106721;-64
2022/09/03 07:59:08;;;;;;;2.43;2.23;;;;;;;19.73;100.00;96178.28;5030101;28;101987;-64
2022/09/03 08:01:39;;;;;;;2.43;2.23;;;;;;;20.04;100.00;96177.06;5031708;28;102971;-64
2022/09/03 08:04:06;;;;;;;4.07;2.70;;;;;;;19.89;100.00;96185.59;5029619;28;105768;-64
2022/09/03 08:06:35;;;;;;;2.33;2.23;;;;;;;19.87;100.00;96179.75;5029826;28;101891;-64
2022/09/03 08:09:05;;;;;;;4.27;2.80;;;;;;;19.64;100.00;96182.84;5031769;27;102481;-64
2022/09/03 08:11:33;;;;;;;2.33;2.23;;;;;;;19.61;100.00;96188.88;5032799;28;105837;-64
2022/09/03 08:14:05;;;;;;;2.33;2.23;;;;;;;19.74;100.00;96193.34;5030254;28;105782;-64
2022/09/03 08:16:33;;;;;;;2.50;2.30;;;;;;;19.58;100.00;96192.97;5030999;28;102508;-64
2022/09/03 08:19:02;;;;;;;2.60;2.40;;;;;;;19.91;100.00;96188.00;5030126;28;101883;-64
2022/09/03 08:21:29;;;;;;;3.73;2.30;;;;;;;20.04;100.00;96197.88;5029777;28;105689;-64
2022/09/03 08:24:01;;;;;;;2.77;2.50;;;;;;;19.93;100.00;96196.56;5030647;27;101926;-64
2022/09/03 08:26:29;;;;;;;3.47;2.67;;;;;;;19.83;100.00;96194.19;5031287;27;101798;-64
2022/09/03 08:28:57;;;;;;;2.93;2.67;;;;;;;19.48;100.00;96195.16;5029678;28;105495;-64
2022/09/03 08:31:26;;;;;;;3.30;2.70;;;;;;;19.59;100.00;96191.06;5030597;28;102563;-64
2022/09/03 08:33:56;;;;;;;3.47;2.70;;;;;;;20.10;100.00;96185.88;5034355;28;101826;-64
2022/09/03 08:36:26;;;;;;;2.47;2.37;;;;;;;20.74;100.00;96195.75;5029050;28;105904;-64
2022/09/03 08:38:55;;;;;;;3.57;2.53;;;;;;;21.11;100.00;96189.69;5030923;27;101958;-64
2022/09/03 08:41:29;;;;;;;2.77;2.57;;;;;;;21.20;100.00;96188.53;5029606;28;105446;-64
2022/09/03 08:44:22;;;;;;;2.77;2.57;;;;;;;21.64;100.00;96198.91;5030712;28;103085;-64
2022/09/03 08:46:53;;;;;;;2.40;2.20;;;;;;;21.74;100.00;96187.75;5029511;28;102041;-64
2022/09/03 08:49:25;;;;;;;2.70;2.50;;;;;;;21.55;100.00;96192.75;5029648;28;105352;-64
2022/09/03 08:51:56;;;;;;;3.23;2.60;;;;;;;21.67;100.00;96197.47;5030125;27;102518;-64
2022/09/03 08:54:27;;;;;;;2.73;2.53;;;;;;;21.93;100.00;96196.28;5031019;27;102156;-64
2022/09/03 08:56:57;;;;;;;2.80;2.43;;;;;;;21.81;100.00;96198.09;5033676;28;102503;-64
2022/09/03 08:59:25;;;;;;;3.50;2.50;;;;;;;21.80;100.00;96199.22;5028858;28;101943;-64
2022/09/03 09:02:01;;;;;;;2.90;2.70;;;;;;;22.14;100.00;96199.03;5027805;27;105082;-64
2022/09/03 09:04:40;;;;;;;3.27;2.63;;;;;;;22.01;100.00;96203.53;5028594;28;105976;-64
2022/09/03 09:07:14;;;;;;;2.70;2.50;;;;;;;22.13;100.00;96200.16;5030820;28;103178;-64
2022/09/03 09:09:48;;;;;;;3.90;2.80;;;;;;;21.86;100.00;96193.25;5029337;28;105311;-64
2022/09/03 09:12:32;;;;;;;2.73;2.53;;;;;;;21.92;100.00;96196.59;5028554;28;105404;-64
2022/09/03 09:15:08;;;;;;;3.20;2.70;;;;;;;21.99;100.00;96188.75;5030743;28;101718;-64
2022/09/03 09:17:55;;;;;;;2.70;2.50;;;;;;;22.22;100.00;96192.75;5028766;28;105902;-64
2022/09/03 09:20:28;;;;;;;3.10;2.80;;;;;;;22.49;100.00;96190.38;5033304;28;102876;-64
2022/09/03 09:23:03;;;;;;;3.03;2.80;;;;;;;22.61;100.00;96176.88;5028793;28;105324;-64
2022/09/03 09:25:31;;;;;;;3.70;2.80;;;;;;;22.41;100.00;96180.38;5029941;28;101795;-64
2022/09/03 09:28:01;;;;;;;4.20;2.70;;;;;;;22.65;100.00;96190.56;5030342;27;101863;-64
2022/09/03 09:30:29;;;;;;;3.50;2.87;;;;;;;22.36;100.00;96188.69;5028990;28;105019;-64
2022/09/03 09:32:56;;;;;;;2.43;2.30;;;;;;;22.41;100.00;96182.28;5027878;28;105509;-64
2022/09/03 09:35:24;;;;;;;2.70;2.50;;;;;;;22.44;100.00;96184.34;5028915;28;101986;-64
2022/09/03 09:37:53;;;;;;;3.03;2.50;;;;;;;22.75;100.00;96174.69;5028842;28;105148;-64
2022/09/03 09:40:38;;;;;;;2.73;2.53;;;;;;;23.09;100.00;96170.84;5029015;28;102803;-64
2022/09/03 09:43:10;;;;;;;2.80;2.60;;;;;;;23.40;100.00;96166.56;5031946;27;101968;-64
2022/09/03 09:45:40;;;;;;;2.60;2.40;;;;;;;23.72;100.00;96159.47;5028028;28;105612;-64
2022/09/03 09:48:18;;;;;;;2.30;2.20;;;;;;;23.84;100.00;96163.00;5028649;28;102037;-64
2022/09/03 09:50:45;;;;;;;2.60;2.40;;;;;;;23.84;100.00;96163.00;5030231;28;102514;-64
2022/09/03 09:53:16;;;;;;;2.30;2.20;;;;;;;24.19;100.00;96157.91;5029531;28;102785;-64
2022/09/03 09:55:55;;;;;;;2.60;2.10;;;;;;;24.04;100.00;96155.88;5028703;28;101993;-64
2022/09/03 09:58:23;;;;;;;2.60;2.40;;;;;;;24.30;100.00;96159.00;5030088;28;102478;-64
2022/09/03 10:01:13;;;;;;;2.17;2.07;;;;;;;24.10;100.00;96159.94;5029282;28;103149;-64
2022/09/03 10:03:48;;;;;;;2.57;2.37;;;;;;;24.23;100.00;96154.16;5026314;28;102058;-64
2022/09/03 10:09:07;;;;;;;2.87;2.13;;;;;;;24.42;100.00;96150.84;5029978;27;101700;-64
2022/09/03 10:11:39;;;;;;;2.13;1.93;;;;;;;24.44;100.00;96162.13;5030061;28;102255;-64
2022/09/03 10:14:14;;;;;;;1.90;1.80;;;;;;;24.48;100.00;96160.31;5031605;27;102605;-64
2022/09/03 10:16:47;;;;;;;1.93;1.83;;;;;;;24.75;100.00;96159.59;5031740;28;103222;-64
2022/09/03 10:19:19;;;;;;;2.00;1.90;;;;;;;24.82;100.00;96162.50;5033687;27;102237;-64
2022/09/03 10:21:55;;;;;;;1.97;1.87;;;;;;;24.63;100.00;96152.25;5031061;28;106084;-64
2022/09/03 10:24:41;;;;;;;2.00;1.90;;;;;;;24.76;100.00;96150.28;5033459;27;101741;-64
2022/09/03 10:27:14;;;;;;;2.80;2.30;;;;;;;24.55;100.00;96161.31;5035963;27;102321;-64
2022/09/03 10:29:42;;;;;;;2.50;2.30;;;;;;;24.00;100.00;96160.41;5031739;28;102466;-64
2022/09/03 10:32:24;;;;;;;2.80;2.60;;;;;;;23.68;100.00;96147.69;5033000;28;102483;-64
2022/09/03 10:35:03;;;;;;;2.20;2.00;;;;;;;24.02;100.00;96141.81;5032597;28;102506;-64
2022/09/03 10:37:39;;;;;;;2.63;2.43;;;;;;;24.28;100.00;96145.75;5031624;28;101924;-64
2022/09/03 10:40:29;;;;;;;2.17;2.07;;;;;;;24.39;100.00;96149.59;5031056;28;105640;-64
2022/09/03 10:43:31;;;;;;;2.60;2.40;;;;;;;24.53;100.00;96151.94;5032506;28;102775;-64
2022/09/03 10:46:05;;;;;;;2.27;2.10;;;;;;;25.14;100.00;96150.56;5031293;28;102390;-64
2022/09/03 10:48:44;;;;;;;2.40;2.20;;;;;;;25.60;100.00;96144.44;5031605;28;105357;-64
2022/09/03 10:51:17;;;;;;;2.50;2.30;;;;;;;25.50;100.00;96143.00;5035593;28;102660;-64
2022/09/03 10:54:12;;;;;;;2.70;2.50;;;;;;;25.62;100.00;96145.63;5032910;28;102330;-64
2022/09/03 10:56:50;;;;;;;2.27;2.17;;;;;;;25.13;100.00;96144.31;5031996;28;102639;-64
2022/09/03 10:59:43;;;;;;;2.27;2.17;;;;;;;25.61;100.00;96140.56;5032618;28;101714;-64
2022/09/03 11:02:30;;;;;;;4.47;2.33;;;;;;;26.09;100.00;96138.25;5030994;28;106473;-64
2022/09/03 11:05:03;;;;;;;3.30;2.30;;;;;;;26.24;99.27;96140.16;5031534;28;102641;-64
2022/09/03 11:07:37;;;;;;;2.60;2.40;;;;;;;24.92;100.00;96132.09;5031014;28;101931;-64
2022/09/03 11:10:14;;;;;;;3.17;2.30;;;;;;;24.96;100.00;96128.31;5032636;28;102880;-64
2022/09/03 11:12:45;;;;;;;2.97;2.63;;;;;;;24.48;100.00;96124.97;5031611;28;102598;-64
2022/09/03 11:15:22;;;;;;;2.90;2.67;;;;;;;25.04;100.00;96130.09;5035969;28;101697;-64
2022/09/03 11:17:55;;;;;;;2.87;2.07;;;;;;;25.74;100.00;96133.88;5031797;28;102597;-64
2022/09/03 11:20:25;;;;;;;2.37;2.10;;;;;;;25.10;100.00;96122.47;5032053;27;101799;-64
2022/09/03 11:22:56;;;;;;;2.60;2.40;;;;;;;25.10;100.00;96125.19;5030767;28;105143;-64
2022/09/03 11:25:27;;;;;;;2.70;2.50;;;;;;;23.68;100.00;96118.63;5030835;27;102743;-64
2022/09/03 11:28:00;;;;;;;2.20;2.10;;;;;;;24.24;100.00;96122.34;5030744;28;101894;-64
2022/09/03 11:30:38;;;;;;;4.40;2.00;;;;;;;24.13;100.00;96118.50;5030720;28;104880;-64
2022/09/03 11:33:09;;;;;;;2.17;1.97;;;;;;;24.14;100.00;96111.94;5029902;28;106516;-64
2022/09/03 11:35:43;;;;;;;2.67;2.10;;;;;;;24.37;100.00;96111.09;5031932;28;101753;-64
2022/09/03 11:38:26;;;;;;;2.43;2.23;;;;;;;24.49;100.00;96108.34;5034874;28;102371;-64
2022/09/03 11:41:03;;;;;;;2.43;2.23;;;;;;;23.99;100.00;96099.06;5032309;27;101788;-64
2022/09/03 11:43:32;;;;;;;2.37;1.73;;;;;;;24.01;100.00;96102.22;5031936;28;102287;-64